createdAt,value
2017-01-04T00:00:14.172Z,0
2017-01-04T00:01:13.744Z,0
2017-01-04T00:02:13.311Z,0
2017-01-04T00:03:14.036Z,0
2017-01-04T00:04:14.381Z,0
2017-01-04T00:05:14.334Z,0
2017-01-04T00:06:13.915Z,0
2017-01-04T00:07:14.248Z,0
2017-01-04T00:08:13.818Z,0
2017-01-04T00:09:13.783Z,0
2017-01-04T00:10:14.129Z,0
2017-01-04T00:11:13.308Z,0
2017-01-04T00:12:13.259Z,0
2017-01-04T00:13:13.993Z,0
2017-01-04T00:14:13.562Z,0
2017-01-04T00:15:13.901Z,0
2017-01-04T00:16:13.470Z,0
2017-01-04T00:17:13.815Z,0
2017-01-04T00:18:13.387Z,0
2017-01-04T00:19:13.351Z,0
2017-01-04T00:20:13.682Z,0
2017-01-04T00:21:13.262Z,0
2017-01-04T00:22:13.212Z,0
2017-01-04T00:23:13.549Z,0
2017-01-04T00:24:13.510Z,0
2017-01-04T00:25:12.697Z,0
2017-01-04T00:26:13.040Z,0
2017-01-04T00:27:12.610Z,0
2017-01-04T00:28:12.948Z,0
2017-01-04T00:29:13.289Z,0
2017-01-04T00:30:12.090Z,0
2017-01-04T00:31:12.827Z,0
2017-01-04T00:32:12.012Z,0
2017-01-04T00:33:13.133Z,0
2017-01-04T00:34:13.070Z,0
2017-01-04T00:35:12.647Z,0
2017-01-04T00:36:12.597Z,0
2017-01-04T00:37:12.173Z,0
2017-01-04T00:38:12.137Z,0
2017-01-04T00:39:12.085Z,0
2017-01-04T00:40:12.041Z,0
2017-01-04T00:41:12.381Z,0
2017-01-04T00:42:11.957Z,0
2017-01-04T00:43:12.292Z,0
2017-01-04T00:44:12.642Z,0
2017-01-04T00:45:11.818Z,0
2017-01-04T00:46:12.551Z,0
2017-01-04T00:47:11.738Z,0
2017-01-04T00:48:11.696Z,0
2017-01-04T00:49:12.030Z,0
2017-01-04T00:50:11.620Z,0
2017-01-04T00:51:11.950Z,0
2017-01-04T00:52:12.285Z,0
2017-01-04T00:53:11.091Z,0
2017-01-04T00:54:11.816Z,0
2017-01-04T00:55:11.384Z,0
2017-01-04T00:56:12.113Z,0
2017-01-04T00:57:12.064Z,0
2017-01-04T00:58:12.025Z,0
2017-01-04T00:59:11.599Z,0
2017-01-04T01:00:11.939Z,0
2017-01-04T01:01:11.896Z,0
2017-01-04T01:02:11.882Z,0
2017-01-04T01:03:10.266Z,0
2017-01-04T01:04:11.379Z,0
2017-01-04T01:05:11.338Z,0
2017-01-04T01:06:11.703Z,0
2017-01-04T01:07:11.638Z,0
2017-01-04T01:08:10.436Z,0
2017-01-04T01:09:11.553Z,0
2017-01-04T01:10:10.760Z,0
2017-01-04T01:11:11.077Z,0
2017-01-04T01:12:10.654Z,0
2017-01-04T01:13:11.373Z,0
2017-01-04T01:14:10.566Z,0
2017-01-04T01:15:10.129Z,0
2017-01-04T01:16:11.238Z,0
2017-01-04T01:17:11.200Z,0
2017-01-04T01:18:10.776Z,0
2017-01-04T01:19:10.729Z,0
2017-01-04T01:20:11.070Z,0
2017-01-04T01:21:10.255Z,0
2017-01-04T01:22:10.601Z,0
2017-01-04T01:23:10.547Z,0
2017-01-04T01:24:10.890Z,0
2017-01-04T01:25:10.855Z,0
2017-01-04T01:26:10.031Z,0
2017-01-04T01:27:09.989Z,0
2017-01-04T01:28:10.336Z,0
2017-01-04T01:29:10.672Z,0
2017-01-04T01:30:09.858Z,0
2017-01-04T01:31:10.202Z,0
2017-01-04T01:32:09.778Z,0
2017-01-04T01:33:10.114Z,0
2017-01-04T01:34:09.690Z,0
2017-01-04T01:35:09.650Z,0
2017-01-04T01:36:09.601Z,0
2017-01-04T01:37:09.948Z,0
2017-01-04T01:38:10.383Z,0
2017-01-04T01:39:09.277Z,0
2017-01-04T01:40:11.493Z,0
2017-01-04T01:41:09.769Z,0
2017-01-04T01:42:09.722Z,0
2017-01-04T01:43:09.300Z,0
2017-01-04T01:44:09.257Z,0
2017-01-04T01:45:09.594Z,0
2017-01-04T01:46:09.933Z,0
2017-01-04T01:47:09.123Z,0
2017-01-04T01:48:09.474Z,0
2017-01-04T01:49:09.039Z,0
2017-01-04T01:50:08.990Z,0
2017-01-04T01:51:09.334Z,0
2017-01-04T01:52:08.900Z,0
2017-01-04T01:53:09.630Z,0
2017-01-04T01:54:08.425Z,0
2017-01-04T01:55:09.185Z,0
2017-01-04T01:56:09.115Z,0
2017-01-04T01:57:09.450Z,0
2017-01-04T01:58:09.027Z,0
2017-01-04T01:59:08.980Z,0
2017-01-04T02:00:08.550Z,0
2017-01-04T02:01:08.507Z,0
2017-01-04T02:02:08.854Z,0
2017-01-04T02:03:09.198Z,0
2017-01-04T02:04:08.760Z,0
2017-01-04T02:05:08.331Z,0
2017-01-04T02:06:09.094Z,0
2017-01-04T02:07:08.630Z,0
2017-01-04T02:08:08.588Z,0
2017-01-04T02:09:08.962Z,0
2017-01-04T02:10:08.125Z,0
2017-01-04T02:11:08.455Z,0
2017-01-04T02:12:08.802Z,0
2017-01-04T02:13:07.982Z,0
2017-01-04T02:14:08.712Z,0
2017-01-04T02:15:07.931Z,0
2017-01-04T02:16:08.623Z,0
2017-01-04T02:17:08.201Z,0
2017-01-04T02:18:07.776Z,0
2017-01-04T02:19:08.112Z,0
2017-01-04T02:20:08.455Z,0
2017-01-04T02:21:08.024Z,0
2017-01-04T02:22:07.978Z,0
2017-01-04T02:23:07.573Z,0
2017-01-04T02:24:07.506Z,0
2017-01-04T02:25:08.237Z,0
2017-01-04T02:26:08.209Z,0
2017-01-04T02:27:07.758Z,0
2017-01-04T02:28:06.977Z,0
2017-01-04T02:29:08.063Z,0
2017-01-04T02:30:06.864Z,0
2017-01-04T02:31:07.194Z,0
2017-01-04T02:32:06.775Z,0
2017-01-04T02:33:07.497Z,0
2017-01-04T02:34:07.840Z,0
2017-01-04T02:35:07.811Z,0
2017-01-04T02:36:07.781Z,0
2017-01-04T02:37:07.732Z,0
2017-01-04T02:38:07.721Z,0
2017-01-04T02:39:06.860Z,0
2017-01-04T02:40:06.816Z,0
2017-01-04T02:41:06.762Z,0
2017-01-04T02:42:06.714Z,0
2017-01-04T02:43:06.677Z,0
2017-01-04T02:44:06.638Z,0
2017-01-04T02:45:06.597Z,0
2017-01-04T02:46:06.932Z,0
2017-01-04T02:47:06.892Z,0
2017-01-04T02:48:06.854Z,0
2017-01-04T02:49:06.798Z,0
2017-01-04T02:50:06.759Z,0
2017-01-04T02:51:05.949Z,0
2017-01-04T02:52:06.674Z,0
2017-01-04T02:53:07.010Z,0
2017-01-04T02:54:06.974Z,0
2017-01-04T02:55:06.933Z,0
2017-01-04T02:56:06.892Z,0
2017-01-04T02:57:06.845Z,0
2017-01-04T02:58:06.418Z,0
2017-01-04T02:59:06.755Z,0
2017-01-04T03:00:06.325Z,0
2017-01-04T03:01:05.897Z,0
2017-01-04T03:02:06.626Z,0
2017-01-04T03:03:05.421Z,0
2017-01-04T03:04:06.152Z,0
2017-01-04T03:05:06.105Z,0
2017-01-04T03:06:06.065Z,0
2017-01-04T03:07:06.411Z,0
2017-01-04T03:08:05.982Z,0
2017-01-04T03:09:05.938Z,0
2017-01-04T03:10:05.898Z,0
2017-01-04T03:11:05.849Z,0
2017-01-04T03:12:05.806Z,0
2017-01-04T03:13:05.772Z,0
2017-01-04T03:14:05.724Z,0
2017-01-04T03:15:05.676Z,0
2017-01-04T03:16:06.020Z,0
2017-01-04T03:17:05.204Z,0
2017-01-04T03:18:05.541Z,0
2017-01-04T03:19:05.113Z,0
2017-01-04T03:20:05.488Z,0
2017-01-04T03:21:05.419Z,0
2017-01-04T03:22:05.376Z,0
2017-01-04T03:23:05.331Z,0
2017-01-04T03:24:04.902Z,0
2017-01-04T03:25:05.625Z,0
2017-01-04T03:26:05.589Z,0
2017-01-04T03:27:04.780Z,0
2017-01-04T03:28:04.362Z,0
2017-01-04T03:29:04.689Z,0
2017-01-04T03:30:19.925Z,0
2017-01-04T03:31:04.597Z,0
2017-01-04T03:32:04.936Z,0
2017-01-04T03:33:04.892Z,0
2017-01-04T03:34:04.464Z,0
2017-01-04T03:35:05.202Z,0
2017-01-04T03:36:04.769Z,0
2017-01-04T03:37:04.333Z,0
2017-01-04T03:38:04.692Z,0
2017-01-04T03:39:05.025Z,0
2017-01-04T03:40:04.979Z,0
2017-01-04T03:41:04.569Z,0
2017-01-04T03:42:04.506Z,0
2017-01-04T03:43:04.850Z,0
2017-01-04T03:44:04.804Z,0
2017-01-04T03:45:04.371Z,0
2017-01-04T03:46:03.955Z,0
2017-01-04T03:47:04.292Z,0
2017-01-04T03:48:04.271Z,0
2017-01-04T03:49:04.589Z,0
2017-01-04T03:50:04.156Z,0
2017-01-04T03:51:04.504Z,0
2017-01-04T03:52:04.073Z,0
2017-01-04T03:53:04.414Z,0
2017-01-04T03:54:03.989Z,0
2017-01-04T03:55:03.178Z,0
2017-01-04T03:56:04.287Z,0
2017-01-04T03:57:03.474Z,0
2017-01-04T03:58:03.825Z,0
2017-01-04T03:59:03.772Z,0
2017-01-04T04:00:04.117Z,0
2017-01-04T04:01:04.073Z,0
2017-01-04T04:02:03.645Z,0
2017-01-04T04:03:03.982Z,0
2017-01-04T04:04:03.165Z,0
2017-01-04T04:05:03.895Z,0
2017-01-04T04:06:03.852Z,0
2017-01-04T04:07:03.059Z,0
2017-01-04T04:08:03.388Z,0
2017-01-04T04:09:02.951Z,0
2017-01-04T04:10:03.297Z,0
2017-01-04T04:11:03.252Z,0
2017-01-04T04:12:02.441Z,0
2017-01-04T04:13:02.786Z,0
2017-01-04T04:14:03.123Z,0
2017-01-04T04:15:03.078Z,0
2017-01-04T04:16:02.647Z,0
2017-01-04T04:17:03.377Z,0
2017-01-04T04:18:02.958Z,0
2017-01-04T04:19:02.910Z,0
2017-01-04T04:20:02.864Z,0
2017-01-04T04:21:02.828Z,0
2017-01-04T04:22:02.417Z,0
2017-01-04T04:23:03.120Z,0
2017-01-04T04:24:02.692Z,0
2017-01-04T04:25:03.033Z,0
2017-01-04T04:26:02.607Z,0
2017-01-04T04:27:02.941Z,0
2017-01-04T04:28:02.902Z,0
2017-01-04T04:29:02.477Z,0
2017-01-04T04:30:02.434Z,0
2017-01-04T04:31:02.392Z,0
2017-01-04T04:32:02.729Z,0
2017-01-04T04:33:02.304Z,0
2017-01-04T04:34:02.259Z,0
2017-01-04T04:35:02.213Z,0
2017-01-04T04:36:02.178Z,0
2017-01-04T04:37:02.137Z,0
2017-01-04T04:38:02.471Z,0
2017-01-04T04:39:02.048Z,0
2017-01-04T04:40:02.001Z,0
2017-01-04T04:41:02.346Z,0
2017-01-04T04:42:01.914Z,0
2017-01-04T04:43:02.265Z,0
2017-01-04T04:44:02.214Z,0
2017-01-04T04:45:01.790Z,0
2017-01-04T04:46:02.128Z,0
2017-01-04T04:47:01.698Z,0
2017-01-04T04:48:02.053Z,0
2017-01-04T04:49:02.003Z,0
2017-01-04T04:50:01.960Z,0
2017-01-04T04:51:01.916Z,0
2017-01-04T04:52:01.483Z,0
2017-01-04T04:53:01.828Z,0
2017-01-04T04:54:01.787Z,0
2017-01-04T04:55:01.353Z,0
2017-01-04T04:56:01.312Z,0
2017-01-04T04:57:01.678Z,0
2017-01-04T04:58:00.871Z,0
2017-01-04T04:59:01.574Z,0
2017-01-04T05:00:01.133Z,0
2017-01-04T05:01:00.707Z,0
2017-01-04T05:02:01.467Z,0
2017-01-04T05:03:00.240Z,0
2017-01-04T05:04:01.353Z,0
2017-01-04T05:05:01.301Z,0
2017-01-04T05:06:01.266Z,0
2017-01-04T05:07:00.829Z,0
2017-01-04T05:08:00.794Z,0
2017-01-04T05:09:00.746Z,0
2017-01-04T05:10:00.721Z,0
2017-01-04T05:11:01.051Z,0
2017-01-04T05:12:01.011Z,0
2017-01-04T05:13:00.607Z,0
2017-01-04T05:14:00.530Z,0
2017-01-04T05:15:00.876Z,0
2017-01-04T05:16:00.445Z,0
2017-01-04T05:17:00.018Z,0
2017-01-04T05:17:59.984Z,0
2017-01-04T05:19:00.314Z,0
2017-01-04T05:19:59.887Z,0
2017-01-04T05:21:00.617Z,0
2017-01-04T05:22:00.570Z,0
2017-01-04T05:23:00.160Z,0
2017-01-04T05:24:00.486Z,0
2017-01-04T05:25:00.055Z,0
2017-01-04T05:26:00.014Z,0
2017-01-04T05:26:59.965Z,0
2017-01-04T05:27:59.918Z,0
2017-01-04T05:28:59.881Z,0
2017-01-04T05:29:59.466Z,0
2017-01-04T05:30:59.795Z,0
2017-01-04T05:31:59.370Z,0
2017-01-04T05:32:59.321Z,0
2017-01-04T05:33:59.309Z,0
2017-01-04T05:34:59.624Z,0
2017-01-04T05:35:59.963Z,0
2017-01-04T05:36:59.538Z,0
2017-01-04T05:37:59.889Z,0
2017-01-04T05:38:59.839Z,0
2017-01-04T05:39:59.411Z,0
2017-01-04T05:40:59.750Z,0
2017-01-04T05:41:59.356Z,0
2017-01-04T05:42:59.665Z,0
2017-01-04T05:43:59.232Z,0
2017-01-04T05:44:58.810Z,0
2017-01-04T05:45:59.143Z,0
2017-01-04T05:46:59.496Z,0
2017-01-04T05:47:58.680Z,0
2017-01-04T05:48:59.408Z,0
2017-01-04T05:49:59.358Z,0
2017-01-04T05:50:58.927Z,0
2017-01-04T05:51:58.888Z,0
2017-01-04T05:52:58.837Z,0
2017-01-04T05:53:59.187Z,0
2017-01-04T05:54:58.369Z,0
2017-01-04T05:55:58.330Z,0
2017-01-04T05:56:58.281Z,0
2017-01-04T05:57:58.630Z,0
2017-01-04T05:58:58.198Z,0
2017-01-04T05:59:58.544Z,0
2017-01-04T06:00:58.882Z,0
2017-01-04T06:01:58.842Z,0
2017-01-04T06:02:58.412Z,0
2017-01-04T06:03:58.370Z,0
2017-01-04T06:04:58.710Z,0
2017-01-04T06:05:58.284Z,0
2017-01-04T06:06:58.617Z,0
2017-01-04T06:07:58.193Z,0
2017-01-04T06:08:58.148Z,0
2017-01-04T06:09:58.139Z,0
2017-01-04T06:10:57.683Z,0
2017-01-04T06:11:58.402Z,0
2017-01-04T06:12:57.590Z,0
2017-01-04T06:13:57.930Z,0
2017-01-04T06:14:57.902Z,0
2017-01-04T06:15:58.232Z,0
2017-01-04T06:16:57.408Z,0
2017-01-04T06:17:56.983Z,0
2017-01-04T06:18:57.328Z,0
2017-01-04T06:19:57.673Z,0
2017-01-04T06:20:58.021Z,0
2017-01-04T06:21:57.591Z,0
2017-01-04T06:22:57.561Z,0
2017-01-04T06:23:57.503Z,0
2017-01-04T06:24:56.684Z,0
2017-01-04T06:25:57.416Z,0
2017-01-04T06:26:57.756Z,0
2017-01-04T06:27:57.709Z,0
2017-01-04T06:28:57.277Z,0
2017-01-04T06:29:57.245Z,0
2017-01-04T06:30:57.578Z,0
2017-01-04T06:31:57.146Z,0
2017-01-04T06:32:57.490Z,0
2017-01-04T06:33:57.061Z,0
2017-01-04T06:34:56.631Z,0
2017-01-04T06:35:57.362Z,0
2017-01-04T06:36:57.314Z,0
2017-01-04T06:37:57.278Z,0
2017-01-04T06:38:56.843Z,0
2017-01-04T06:39:57.189Z,0
2017-01-04T06:40:56.001Z,0
2017-01-04T06:41:57.110Z,0
2017-01-04T06:42:56.315Z,0
2017-01-04T06:43:57.017Z,0
2017-01-04T06:44:56.593Z,0
2017-01-04T06:45:56.548Z,0
2017-01-04T06:46:56.881Z,0
2017-01-04T06:47:56.870Z,0
2017-01-04T06:48:56.025Z,0
2017-01-04T06:49:56.377Z,0
2017-01-04T06:50:56.705Z,0
2017-01-04T06:51:56.281Z,0
2017-01-04T06:52:56.622Z,0
2017-01-04T06:53:56.581Z,0
2017-01-04T06:54:55.766Z,0
2017-01-04T06:55:56.493Z,0
2017-01-04T06:56:55.692Z,0
2017-01-04T06:57:56.032Z,0
2017-01-04T06:58:56.366Z,0
2017-01-04T06:59:55.551Z,0
2017-01-04T07:00:56.276Z,0
2017-01-04T07:01:55.467Z,0
2017-01-04T07:02:55.811Z,0
2017-01-04T07:03:56.144Z,0
2017-01-04T07:04:55.325Z,0
2017-01-04T07:05:56.062Z,0
2017-01-04T07:06:55.639Z,0
2017-01-04T07:07:55.973Z,0
2017-01-04T07:08:55.542Z,0
2017-01-04T07:09:55.887Z,0
2017-01-04T07:10:55.073Z,0
2017-01-04T07:11:55.414Z,0
2017-01-04T07:12:55.396Z,0
2017-01-04T07:13:55.328Z,0
2017-01-04T07:14:54.899Z,0
2017-01-04T07:15:54.857Z,0
2017-01-04T07:16:54.813Z,0
2017-01-04T07:17:55.545Z,0
2017-01-04T07:18:54.730Z,0
2017-01-04T07:19:55.450Z,0
2017-01-04T07:20:55.407Z,0
2017-01-04T07:21:55.364Z,0
2017-01-04T07:22:55.349Z,0
2017-01-04T07:23:55.275Z,5
2017-01-04T07:24:54.849Z,5
2017-01-04T07:25:54.419Z,5
2017-01-04T07:26:54.371Z,5
2017-01-04T07:27:54.331Z,5
2017-01-04T07:28:55.066Z,5
2017-01-04T07:29:54.634Z,5
2017-01-04T07:30:54.205Z,5
2017-01-04T07:31:54.540Z,5
2017-01-04T07:32:54.889Z,5
2017-01-04T07:33:54.843Z,5
2017-01-04T07:34:54.792Z,5
2017-01-04T07:35:54.375Z,5
2017-01-04T07:36:54.711Z,5
2017-01-04T07:37:54.320Z,5
2017-01-04T07:38:53.480Z,5
2017-01-04T07:39:54.200Z,5
2017-01-04T07:40:53.774Z,10
2017-01-04T07:41:54.497Z,10
2017-01-04T07:42:53.294Z,10
2017-01-04T07:43:54.408Z,10
2017-01-04T07:44:53.979Z,10
2017-01-04T07:45:54.325Z,15
2017-01-04T07:46:53.911Z,15
2017-01-04T07:47:53.845Z,15
2017-01-04T07:48:53.423Z,15
2017-01-04T07:49:54.149Z,15
2017-01-04T07:50:53.723Z,15
2017-01-04T07:51:53.289Z,15
2017-01-04T07:52:53.632Z,15
2017-01-04T07:53:53.209Z,15
2017-01-04T07:54:53.558Z,20
2017-01-04T07:55:53.508Z,20
2017-01-04T07:56:53.485Z,20
2017-01-04T07:57:53.417Z,20
2017-01-04T07:58:53.374Z,20
2017-01-04T07:59:53.727Z,20
2017-01-04T08:00:53.294Z,20
2017-01-04T08:01:53.636Z,20
2017-01-04T08:02:53.199Z,20
2017-01-04T08:03:53.545Z,15
2017-01-04T08:04:53.502Z,15
2017-01-04T08:05:53.074Z,15
2017-01-04T08:06:53.035Z,20
2017-01-04T08:07:52.602Z,20
2017-01-04T08:08:52.557Z,20
2017-01-04T08:09:53.288Z,20
2017-01-04T08:10:53.246Z,20
2017-01-04T08:11:52.816Z,20
2017-01-04T08:12:52.776Z,25
2017-01-04T08:13:53.112Z,20
2017-01-04T08:14:52.298Z,20
2017-01-04T08:15:52.644Z,20
2017-01-04T08:16:52.598Z,20
2017-01-04T08:17:52.555Z,20
2017-01-04T08:18:52.526Z,25
2017-01-04T08:19:52.857Z,25
2017-01-04T08:20:52.421Z,30
2017-01-04T08:21:52.769Z,30
2017-01-04T08:22:52.342Z,30
2017-01-04T08:23:52.296Z,30
2017-01-04T08:24:52.250Z,30
2017-01-04T08:25:52.600Z,30
2017-01-04T08:26:52.171Z,30
2017-01-04T08:27:51.749Z,30
2017-01-04T08:28:51.694Z,30
2017-01-04T08:29:51.653Z,30
2017-01-04T08:30:52.383Z,25
2017-01-04T08:31:52.343Z,25
2017-01-04T08:32:51.532Z,25
2017-01-04T08:33:51.484Z,25
2017-01-04T08:34:51.448Z,25
2017-01-04T08:35:51.781Z,25
2017-01-04T08:36:51.760Z,20
2017-01-04T08:37:52.094Z,25
2017-01-04T08:38:52.043Z,25
2017-01-04T08:39:51.611Z,25
2017-01-04T08:40:50.795Z,25
2017-01-04T08:41:51.913Z,25
2017-01-04T08:42:51.478Z,30
2017-01-04T08:43:51.833Z,30
2017-01-04T08:44:51.401Z,30
2017-01-04T08:45:51.749Z,30
2017-01-04T08:46:50.928Z,30
2017-01-04T08:47:51.277Z,35
2017-01-04T08:48:51.234Z,35
2017-01-04T08:49:51.189Z,35
2017-01-04T08:50:51.530Z,40
2017-01-04T08:51:51.119Z,40
2017-01-04T08:52:51.056Z,40
2017-01-04T08:53:51.401Z,40
2017-01-04T08:54:51.359Z,40
2017-01-04T08:55:50.553Z,40
2017-01-04T08:56:51.283Z,45
2017-01-04T08:57:50.847Z,45
2017-01-04T08:58:50.811Z,40
2017-01-04T08:59:51.148Z,40
2017-01-04T09:00:50.724Z,40
2017-01-04T09:01:49.909Z,40
2017-01-04T09:02:50.631Z,40
2017-01-04T09:03:50.594Z,40
2017-01-04T09:04:50.550Z,40
2017-01-04T09:05:50.893Z,40
2017-01-04T09:06:50.850Z,40
2017-01-04T09:07:50.425Z,40
2017-01-04T09:08:50.762Z,40
2017-01-04T09:09:50.357Z,40
2017-01-04T09:10:50.679Z,40
2017-01-04T09:11:50.259Z,40
2017-01-04T09:12:50.202Z,40
2017-01-04T09:13:50.549Z,45
2017-01-04T09:14:50.507Z,45
2017-01-04T09:15:49.316Z,45
2017-01-04T09:16:50.450Z,45
2017-01-04T09:17:50.389Z,45
2017-01-04T09:18:49.958Z,45
2017-01-04T09:19:49.914Z,45
2017-01-04T09:20:49.490Z,45
2017-01-04T09:21:49.445Z,45
2017-01-04T09:22:49.790Z,45
2017-01-04T09:23:49.750Z,45
2017-01-04T09:24:49.715Z,45
2017-01-04T09:25:49.657Z,50
2017-01-04T09:26:49.613Z,50
2017-01-04T09:27:49.581Z,50
2017-01-04T09:28:49.147Z,50
2017-01-04T09:29:49.875Z,50
2017-01-04T09:30:49.448Z,55
2017-01-04T09:31:49.018Z,55
2017-01-04T09:32:49.360Z,55
2017-01-04T09:33:49.701Z,60
2017-01-04T09:34:48.888Z,60
2017-01-04T09:35:49.315Z,60
2017-01-04T09:36:48.810Z,60
2017-01-04T09:37:49.180Z,55
2017-01-04T09:38:48.725Z,55
2017-01-04T09:39:49.459Z,55
2017-01-04T09:40:49.415Z,50
2017-01-04T09:41:48.978Z,50
2017-01-04T09:42:48.552Z,50
2017-01-04T09:43:49.280Z,55
2017-01-04T09:44:48.852Z,55
2017-01-04T09:45:48.807Z,55
2017-01-04T09:46:48.761Z,55
2017-01-04T09:47:49.115Z,55
2017-01-04T09:48:49.067Z,55
2017-01-04T09:49:47.869Z,60
2017-01-04T09:50:48.981Z,60
2017-01-04T09:51:48.554Z,60
2017-01-04T09:52:48.127Z,60
2017-01-04T09:53:48.085Z,60
2017-01-04T09:54:47.660Z,60
2017-01-04T09:55:48.380Z,60
2017-01-04T09:56:48.341Z,60
2017-01-04T09:57:48.683Z,60
2017-01-04T09:58:48.257Z,60
2017-01-04T09:59:47.832Z,60
2017-01-04T10:00:48.564Z,60
2017-01-04T10:01:48.521Z,55
2017-01-04T10:02:48.469Z,55
2017-01-04T10:03:47.660Z,60
2017-01-04T10:04:47.624Z,60
2017-01-04T10:05:48.359Z,60
2017-01-04T10:06:47.923Z,65
2017-01-04T10:07:47.874Z,65
2017-01-04T10:08:47.832Z,70
2017-01-04T10:09:47.415Z,70
2017-01-04T10:10:46.978Z,70
2017-01-04T10:11:47.708Z,65
2017-01-04T10:12:48.047Z,65
2017-01-04T10:13:47.643Z,60
2017-01-04T10:14:47.964Z,55
2017-01-04T10:15:47.539Z,50
2017-01-04T10:16:47.881Z,50
2017-01-04T10:17:46.685Z,50
2017-01-04T10:18:47.795Z,50
2017-01-04T10:19:47.363Z,50
2017-01-04T10:20:47.323Z,50
2017-01-04T10:21:46.519Z,50
2017-01-04T10:22:47.635Z,50
2017-01-04T10:23:47.579Z,50
2017-01-04T10:24:47.162Z,50
2017-01-04T10:25:47.495Z,50
2017-01-04T10:26:47.118Z,55
2017-01-04T10:27:47.028Z,55
2017-01-04T10:28:46.987Z,55
2017-01-04T10:29:46.975Z,50
2017-01-04T10:30:46.903Z,50
2017-01-04T10:31:46.483Z,50
2017-01-04T10:32:47.198Z,45
2017-01-04T10:33:47.180Z,45
2017-01-04T10:34:47.119Z,45
2017-01-04T10:35:46.692Z,40
2017-01-04T10:36:46.263Z,40
2017-01-04T10:37:46.984Z,35
2017-01-04T10:38:46.560Z,35
2017-01-04T10:39:46.903Z,35
2017-01-04T10:40:46.479Z,35
2017-01-04T10:41:46.436Z,35
2017-01-04T10:42:46.393Z,35
2017-01-04T10:43:46.347Z,35
2017-01-04T10:44:46.695Z,35
2017-01-04T10:45:46.648Z,35
2017-01-04T10:46:46.220Z,40
2017-01-04T10:47:45.797Z,40
2017-01-04T10:48:46.526Z,40
2017-01-04T10:49:46.126Z,40
2017-01-04T10:50:46.060Z,40
2017-01-04T10:51:46.007Z,40
2017-01-04T10:52:46.355Z,40
2017-01-04T10:53:45.927Z,40
2017-01-04T10:54:45.500Z,40
2017-01-04T10:55:45.459Z,40
2017-01-04T10:56:45.798Z,40
2017-01-04T10:57:45.758Z,40
2017-01-04T10:58:45.327Z,35
2017-01-04T10:59:45.672Z,35
2017-01-04T11:00:46.013Z,40
2017-01-04T11:01:45.983Z,40
2017-01-04T11:02:45.547Z,40
2017-01-04T11:03:45.499Z,40
2017-01-04T11:04:45.458Z,40
2017-01-04T11:05:45.808Z,40
2017-01-04T11:06:45.761Z,40
2017-01-04T11:07:44.560Z,40
2017-01-04T11:08:45.671Z,45
2017-01-04T11:09:45.243Z,45
2017-01-04T11:10:45.205Z,45
2017-01-04T11:11:45.172Z,45
2017-01-04T11:12:45.506Z,45
2017-01-04T11:13:45.459Z,45
2017-01-04T11:14:45.425Z,50
2017-01-04T11:15:45.396Z,50
2017-01-04T11:16:44.948Z,55
2017-01-04T11:17:45.288Z,55
2017-01-04T11:18:45.249Z,55
2017-01-04T11:19:44.433Z,60
2017-01-04T11:20:44.782Z,65
2017-01-04T11:21:44.740Z,65
2017-01-04T11:22:45.080Z,65
2017-01-04T11:23:44.273Z,60
2017-01-04T11:24:44.606Z,60
2017-01-04T11:25:44.955Z,60
2017-01-04T11:26:44.913Z,60
2017-01-04T11:27:44.490Z,55
2017-01-04T11:28:44.444Z,55
2017-01-04T11:29:44.397Z,55
2017-01-04T11:30:44.355Z,55
2017-01-04T11:31:44.315Z,60
2017-01-04T11:32:43.890Z,60
2017-01-04T11:33:44.616Z,60
2017-01-04T11:34:44.184Z,60
2017-01-04T11:35:44.145Z,65
2017-01-04T11:36:44.104Z,65
2017-01-04T11:37:44.065Z,65
2017-01-04T11:38:44.025Z,65
2017-01-04T11:39:44.364Z,65
2017-01-04T11:40:43.968Z,70
2017-01-04T11:41:44.272Z,70
2017-01-04T11:42:44.238Z,65
2017-01-04T11:43:44.198Z,65
2017-01-04T11:44:44.156Z,65
2017-01-04T11:45:42.978Z,65
2017-01-04T11:46:43.301Z,65
2017-01-04T11:47:44.025Z,70
2017-01-04T11:48:43.980Z,65
2017-01-04T11:49:43.553Z,70
2017-01-04T11:50:43.513Z,70
2017-01-04T11:51:43.868Z,70
2017-01-04T11:52:43.814Z,70
2017-01-04T11:53:43.383Z,70
2017-01-04T11:54:43.344Z,75
2017-01-04T11:55:43.699Z,75
2017-01-04T11:56:43.268Z,85
2017-01-04T11:57:43.219Z,80
2017-01-04T11:58:42.791Z,85
2017-01-04T11:59:43.146Z,85
2017-01-04T12:00:42.721Z,90
2017-01-04T12:01:43.441Z,90
2017-01-04T12:02:42.622Z,90
2017-01-04T12:03:42.978Z,95
2017-01-04T12:04:41.773Z,95
2017-01-04T12:05:42.881Z,95
2017-01-04T12:06:42.474Z,95
2017-01-04T12:07:42.420Z,95
2017-01-04T12:08:42.764Z,95
2017-01-04T12:09:42.722Z,90
2017-01-04T12:10:42.670Z,90
2017-01-04T12:11:43.015Z,95
2017-01-04T12:12:42.592Z,90
2017-01-04T12:13:41.783Z,90
2017-01-04T12:14:42.888Z,95
2017-01-04T12:15:42.465Z,85
2017-01-04T12:16:42.422Z,85
2017-01-04T12:17:42.766Z,85
2017-01-04T12:18:42.727Z,95
2017-01-04T12:19:41.915Z,95
2017-01-04T12:20:41.882Z,95
2017-01-04T12:21:41.830Z,100
2017-01-04T12:22:42.561Z,100
2017-01-04T12:23:42.128Z,110
2017-01-04T12:24:41.325Z,110
2017-01-04T12:25:42.432Z,105
2017-01-04T12:26:41.616Z,100
2017-01-04T12:27:41.609Z,95
2017-01-04T12:28:41.537Z,110
2017-01-04T12:29:42.270Z,105
2017-01-04T12:30:42.233Z,100
2017-01-04T12:31:42.193Z,100
2017-01-04T12:32:41.749Z,95
2017-01-04T12:33:42.097Z,95
2017-01-04T12:34:41.285Z,95
2017-01-04T12:35:41.631Z,100
2017-01-04T12:36:41.980Z,95
2017-01-04T12:37:41.551Z,90
2017-01-04T12:38:41.888Z,90
2017-01-04T12:39:41.464Z,85
2017-01-04T12:40:41.040Z,80
2017-01-04T12:41:41.385Z,75
2017-01-04T12:42:41.340Z,75
2017-01-04T12:43:41.689Z,80
2017-01-04T12:44:41.258Z,80
2017-01-04T12:45:41.607Z,80
2017-01-04T12:46:41.556Z,85
2017-01-04T12:47:41.138Z,85
2017-01-04T12:48:40.319Z,80
2017-01-04T12:49:41.046Z,80
2017-01-04T12:50:41.399Z,80
2017-01-04T12:51:41.360Z,80
2017-01-04T12:52:41.334Z,75
2017-01-04T12:53:40.882Z,75
2017-01-04T12:54:41.219Z,70
2017-01-04T12:55:40.796Z,70
2017-01-04T12:56:41.144Z,70
2017-01-04T12:57:40.716Z,65
2017-01-04T12:58:40.671Z,65
2017-01-04T12:59:41.014Z,65
2017-01-04T13:00:39.826Z,65
2017-01-04T13:01:40.959Z,65
2017-01-04T13:02:40.544Z,65
2017-01-04T13:03:40.475Z,55
2017-01-04T13:04:40.432Z,50
2017-01-04T13:05:40.772Z,50
2017-01-04T13:06:40.725Z,45
2017-01-04T13:07:39.912Z,50
2017-01-04T13:08:40.262Z,50
2017-01-04T13:09:40.595Z,45
2017-01-04T13:10:39.812Z,40
2017-01-04T13:11:40.525Z,40
2017-01-04T13:12:40.466Z,40
2017-01-04T13:13:40.071Z,40
2017-01-04T13:14:39.995Z,40
2017-01-04T13:15:40.344Z,40
2017-01-04T13:16:39.155Z,40
2017-01-04T13:17:39.493Z,40
2017-01-04T13:18:39.455Z,45
2017-01-04T13:19:39.413Z,50
2017-01-04T13:20:40.138Z,45
2017-01-04T13:21:40.085Z,40
2017-01-04T13:22:39.670Z,40
2017-01-04T13:23:39.237Z,35
2017-01-04T13:24:39.964Z,35
2017-01-04T13:25:39.539Z,40
2017-01-04T13:26:39.907Z,40
2017-01-04T13:27:39.843Z,45
2017-01-04T13:28:39.408Z,40
2017-01-04T13:29:39.368Z,40
2017-01-04T13:30:39.719Z,40
2017-01-04T13:31:38.897Z,35
2017-01-04T13:32:38.860Z,35
2017-01-04T13:33:38.824Z,30
2017-01-04T13:34:38.773Z,30
2017-01-04T13:35:39.507Z,25
2017-01-04T13:36:39.476Z,25
2017-01-04T13:37:39.031Z,25
2017-01-04T13:38:38.988Z,25
2017-01-04T13:39:38.983Z,30
2017-01-04T13:40:39.288Z,30
2017-01-04T13:41:39.254Z,30
2017-01-04T13:42:39.215Z,30
2017-01-04T13:43:39.185Z,30
2017-01-04T13:44:39.127Z,35
2017-01-04T13:45:39.084Z,30
2017-01-04T13:46:38.652Z,30
2017-01-04T13:47:37.838Z,30
2017-01-04T13:48:37.799Z,30
2017-01-04T13:49:38.930Z,25
2017-01-04T13:50:38.102Z,25
2017-01-04T13:51:38.447Z,25
2017-01-04T13:52:38.796Z,25
2017-01-04T13:53:38.746Z,25
2017-01-04T13:54:38.698Z,20
2017-01-04T13:55:38.273Z,20
2017-01-04T13:56:38.237Z,25
2017-01-04T13:57:37.800Z,25
2017-01-04T13:58:38.162Z,25
2017-01-04T13:59:38.519Z,25
2017-01-04T14:00:38.445Z,20
2017-01-04T14:01:37.248Z,20
2017-01-04T14:02:37.588Z,20
2017-01-04T14:03:38.326Z,20
2017-01-04T14:04:37.896Z,20
2017-01-04T14:05:37.852Z,20
2017-01-04T14:06:37.814Z,15
2017-01-04T14:07:38.147Z,20
2017-01-04T14:08:37.719Z,20
2017-01-04T14:09:38.066Z,20
2017-01-04T14:10:37.638Z,20
2017-01-04T14:11:37.227Z,15
2017-01-04T14:12:37.547Z,20
2017-01-04T14:13:36.745Z,15
2017-01-04T14:14:37.860Z,15
2017-01-04T14:15:37.810Z,15
2017-01-04T14:16:37.381Z,15
2017-01-04T14:17:36.957Z,15
2017-01-04T14:18:37.300Z,15
2017-01-04T14:19:36.872Z,15
2017-01-04T14:20:37.603Z,15
2017-01-04T14:21:37.558Z,15
2017-01-04T14:22:36.373Z,15
2017-01-04T14:23:37.473Z,15
2017-01-04T14:24:36.670Z,15
2017-01-04T14:25:37.384Z,15
2017-01-04T14:26:37.355Z,15
2017-01-04T14:27:36.921Z,15
2017-01-04T14:28:37.266Z,15
2017-01-04T14:29:36.067Z,15
2017-01-04T14:30:37.179Z,15